Time;durP1;ratioP1;P1;durP2;ratioP2;P2;SDS_P1;SDS_P2;PMS_P1;PMS_P2;Temp;Humidity;BMP_temperature;BMP_pressure;BME280_temperature;BME280_humidity;BME280_pressure;Samples;Min_cycle;Max_cycle;Signal;HPM_P1;HPM_P2
2023/10/11 00:01:49;;;;;;;18.13;14.37;;;;;;;;;;2617700;47;20415;-75
2023/10/11 00:04:24;;;;;;;14.93;13.33;;;;;;;;;;2617712;47;20462;-73
2023/10/11 00:07:00;;;;;;;14.57;13.43;;;;;;;;;;2617498;47;20426;-74
2023/10/11 00:09:35;;;;;;;17.93;13.70;;;;;;;;;;2617677;46;20466;-74
2023/10/11 00:12:31;;;;;;;16.20;14.50;;;;;;;;;;2617685;54;20403;-74
2023/10/11 00:15:08;;;;;;;15.27;14.13;;;;;;;;;;2616734;47;20412;-74
2023/10/11 00:17:36;;;;;;;16.23;13.70;;;;;;;;;;2616552;47;20983;-74
2023/10/11 00:20:28;;;;;;;14.77;13.50;;;;;;;;;;2616662;54;20564;-74
2023/10/11 00:23:09;;;;;;;16.37;14.20;;;;;;;;;;2616815;46;20367;-74
2023/10/11 00:25:44;;;;;;;15.07;13.97;;;;;;;;;;2617211;39;20782;-75
2023/10/11 00:28:13;;;;;;;14.87;13.57;;;;;;;;;;2614454;47;20439;-76
2023/10/11 00:30:39;;;;;;;15.20;13.83;;;;;;;;;;2611956;54;20380;-76
2023/10/11 00:33:07;;;;;;;14.47;13.47;;;;;;;;;;2611528;49;20407;-78
2023/10/11 00:35:34;;;;;;;15.47;14.20;;;;;;;;;;2611093;54;20395;-79
2023/10/11 00:38:01;;;;;;;14.57;13.57;;;;;;;;;;2610975;54;20419;-79
2023/10/11 00:40:31;;;;;;;13.60;12.60;;;;;;;;;;2611329;54;20424;-77
2023/10/11 00:42:58;;;;;;;14.83;13.23;;;;;;;;;;2611491;47;20456;-77
2023/10/11 00:45:31;;;;;;;14.20;13.07;;;;;;;;;;2611125;54;20440;-76
2023/10/11 00:48:00;;;;;;;15.20;13.53;;;;;;;;;;2611830;51;20408;-76
2023/10/11 00:50:30;;;;;;;15.30;14.20;;;;;;;;;;2611717;54;20428;-77
2023/10/11 00:52:57;;;;;;;14.50;13.53;;;;;;;;;;2612671;54;20404;-77
2023/10/11 00:55:23;;;;;;;15.63;14.00;;;;;;;;;;2612611;54;20470;-77
2023/10/11 00:57:49;;;;;;;14.93;13.90;;;;;;;;;;2612011;54;20426;-76
2023/10/11 01:00:21;;;;;;;14.37;13.33;;;;;;;;;;2612566;39;20820;-77
2023/10/11 01:02:47;;;;;;;14.63;13.10;;;;;;;;;;2613548;54;20501;-78
2023/10/11 01:05:17;;;;;;;13.60;12.60;;;;;;;;;;2613610;54;20442;-78
2023/10/11 01:07:49;;;;;;;15.07;13.77;;;;;;;;;;2612169;54;20439;-77
2023/10/11 01:10:23;;;;;;;13.93;12.93;;;;;;;;;;2612667;54;20424;-78
2023/10/11 01:12:49;;;;;;;18.93;13.00;;;;;;;;;;2612097;54;20415;-78
2023/10/11 01:15:19;;;;;;;12.73;11.90;;;;;;;;;;2613534;54;20396;-78
2023/10/11 01:17:45;;;;;;;14.93;13.77;;;;;;;;;;2613170;54;20416;-76
2023/10/11 01:20:19;;;;;;;15.03;13.93;;;;;;;;;;2613407;54;20423;-77
2023/10/11 01:22:45;;;;;;;14.20;13.20;;;;;;;;;;2614349;31;20892;-76
2023/10/11 01:25:20;;;;;;;14.43;13.27;;;;;;;;;;2613588;54;20400;-76
2023/10/11 01:27:47;;;;;;;14.90;13.20;;;;;;;;;;2613874;54;20427;-77
2023/10/11 01:30:14;;;;;;;13.53;12.43;;;;;;;;;;2613512;54;20396;-76
2023/10/11 01:32:43;;;;;;;14.03;12.80;;;;;;;;;;2613392;54;20392;-78
2023/10/11 01:35:14;;;;;;;12.70;11.80;;;;;;;;;;2613065;54;20418;-78
2023/10/11 01:37:43;;;;;;;13.87;12.63;;;;;;;;;;2612757;47;20435;-77
2023/10/11 01:40:24;;;;;;;14.67;13.00;;;;;;;;;;2610013;54;20530;-74
2023/10/11 01:42:53;;;;;;;12.93;11.73;;;;;;;;;;2612724;54;20566;-73
2023/10/11 01:45:22;;;;;;;13.20;12.00;;;;;;;;;;2613719;54;20511;-75
2023/10/11 01:47:50;;;;;;;17.33;13.57;;;;;;;;;;2612227;54;20424;-74
2023/10/11 01:50:24;;;;;;;13.53;12.33;;;;;;;;;;2613059;54;20420;-74
2023/10/11 01:52:50;;;;;;;14.53;13.30;;;;;;;;;;2613170;54;21094;-74
2023/10/11 01:55:17;;;;;;;15.60;13.67;;;;;;;;;;2613184;54;20447;-73
2023/10/11 01:57:48;;;;;;;13.17;11.93;;;;;;;;;;2613640;54;20404;-74
2023/10/11 02:00:24;;;;;;;12.80;11.60;;;;;;;;;;2613593;54;20407;-74
2023/10/11 02:02:57;;;;;;;14.13;13.03;;;;;;;;;;2612737;54;20419;-73
2023/10/11 02:05:24;;;;;;;14.30;12.83;;;;;;;;;;2613552;54;20400;-74
2023/10/11 02:07:51;;;;;;;14.43;13.20;;;;;;;;;;2612873;39;20775;-74
2023/10/11 02:10:26;;;;;;;13.83;12.63;;;;;;;;;;2612986;51;20415;-75
2023/10/11 02:12:55;;;;;;;13.07;12.03;;;;;;;;;;2612994;51;20538;-74
2023/10/11 02:15:21;;;;;;;13.93;12.80;;;;;;;;;;2613428;39;20837;-74
2023/10/11 02:17:51;;;;;;;14.60;13.00;;;;;;;;;;2613101;47;20451;-76
2023/10/11 02:20:21;;;;;;;13.43;12.33;;;;;;;;;;2613578;54;20527;-73
2023/10/11 02:22:51;;;;;;;12.93;11.70;;;;;;;;;;2614283;39;20892;-75
2023/10/11 02:25:24;;;;;;;13.07;12.07;;;;;;;;;;2613323;39;20837;-73
2023/10/11 02:27:50;;;;;;;13.47;12.13;;;;;;;;;;2613641;54;20435;-74
2023/10/11 02:30:21;;;;;;;12.97;11.90;;;;;;;;;;2613818;54;20402;-73
2023/10/11 02:32:48;;;;;;;13.13;11.80;;;;;;;;;;2613664;54;20973;-75
2023/10/11 02:35:14;;;;;;;13.77;12.27;;;;;;;;;;2612606;54;20429;-73
2023/10/11 02:37:41;;;;;;;13.03;12.00;;;;;;;;;;2613604;54;20478;-75
2023/10/11 02:40:08;;;;;;;11.37;10.30;;;;;;;;;;2612825;54;20914;-73
2023/10/11 02:42:37;;;;;;;13.90;12.60;;;;;;;;;;2613377;54;20407;-73
2023/10/11 02:45:07;;;;;;;13.43;12.20;;;;;;;;;;2612601;47;20471;-75
2023/10/11 02:47:35;;;;;;;13.00;12.00;;;;;;;;;;2612784;47;20414;-74
2023/10/11 02:50:05;;;;;;;13.03;12.13;;;;;;;;;;2613212;54;20423;-75
2023/10/11 02:52:39;;;;;;;12.93;11.90;;;;;;;;;;2612944;54;21042;-75
2023/10/11 02:55:21;;;;;;;12.90;11.80;;;;;;;;;;2612762;54;20430;-74
2023/10/11 02:57:57;;;;;;;13.10;11.73;;;;;;;;;;2613567;54;20427;-75
2023/10/11 03:00:23;;;;;;;16.37;15.10;;;;;;;;;;2613074;54;20449;-75
2023/10/11 03:02:56;;;;;;;14.53;13.20;;;;;;;;;;2612440;49;20412;-75
2023/10/11 03:05:29;;;;;;;13.27;12.27;;;;;;;;;;2612919;48;20407;-74
2023/10/11 03:07:55;;;;;;;16.23;11.47;;;;;;;;;;2613744;54;20412;-75
2023/10/11 03:10:23;;;;;;;15.13;13.87;;;;;;;;;;2612765;54;20511;-75
2023/10/11 03:12:52;;;;;;;14.90;12.70;;;;;;;;;;2613731;54;21022;-76
2023/10/11 03:15:19;;;;;;;14.20;12.87;;;;;;;;;;2612953;39;20545;-76
2023/10/11 03:17:48;;;;;;;14.13;12.73;;;;;;;;;;2613370;54;21227;-76
2023/10/11 03:20:30;;;;;;;13.47;12.20;;;;;;;;;;2613667;54;20524;-74
2023/10/11 03:22:59;;;;;;;13.37;12.17;;;;;;;;;;2613312;39;20806;-75
2023/10/11 03:25:28;;;;;;;23.80;12.80;;;;;;;;;;2612699;54;20416;-75
2023/10/11 03:27:55;;;;;;;13.37;12.07;;;;;;;;;;2613196;54;20419;-75
2023/10/11 03:30:24;;;;;;;18.40;12.20;;;;;;;;;;2612105;54;20551;-75
2023/10/11 03:32:50;;;;;;;15.17;12.50;;;;;;;;;;2611987;54;20431;-75
2023/10/11 03:35:18;;;;;;;11.53;10.70;;;;;;;;;;2613033;54;20454;-75
2023/10/11 03:37:57;;;;;;;13.23;12.20;;;;;;;;;;2613356;54;20420;-75
2023/10/11 03:40:54;;;;;;;15.50;13.23;;;;;;;;;;2612227;54;20946;-76
2023/10/11 03:43:20;;;;;;;14.83;13.20;;;;;;;;;;2611759;47;20435;-75
2023/10/11 03:45:49;;;;;;;14.03;12.73;;;;;;;;;;2613198;54;20395;-75
2023/10/11 03:48:16;;;;;;;12.43;11.33;;;;;;;;;;2612010;51;20495;-75
2023/10/11 03:50:47;;;;;;;13.53;12.23;;;;;;;;;;2613110;54;20427;-75
2023/10/11 03:53:14;;;;;;;19.53;12.80;;;;;;;;;;2613384;54;20547;-75
2023/10/11 03:55:47;;;;;;;14.57;12.63;;;;;;;;;;2612617;54;20619;-76
2023/10/11 04:01:03;;;;;;;14.27;13.07;;;;;;;;;;2612925;54;20395;-77
2023/10/11 04:03:31;;;;;;;15.37;13.53;;;;;;;;;;2612730;54;20439;-78
2023/10/11 04:05:58;;;;;;;13.70;12.30;;;;;;;;;;2612894;54;20408;-77
2023/10/11 04:08:25;;;;;;;15.90;12.90;;;;;;;;;;2612276;54;20427;-78
2023/10/11 04:10:53;;;;;;;13.80;12.80;;;;;;;;;;2612683;54;20431;-78
2023/10/11 04:13:25;;;;;;;14.47;13.17;;;;;;;;;;2611780;54;20531;-78
2023/10/11 04:15:54;;;;;;;13.47;12.17;;;;;;;;;;2612309;54;20428;-77
2023/10/11 04:18:20;;;;;;;12.20;11.20;;;;;;;;;;2612364;54;20399;-78
2023/10/11 04:21:04;;;;;;;13.60;12.33;;;;;;;;;;2613555;54;20412;-77
2023/10/11 04:23:35;;;;;;;13.10;11.83;;;;;;;;;;2613148;54;20411;-76
2023/10/11 04:26:07;;;;;;;13.00;11.70;;;;;;;;;;2612399;51;20528;-76
2023/10/11 04:28:33;;;;;;;13.73;12.50;;;;;;;;;;2613655;54;20470;-76
2023/10/11 04:33:50;;;;;;;14.30;13.00;;;;;;;;;;2613510;54;20858;-76
2023/10/11 04:36:20;;;;;;;12.57;11.70;;;;;;;;;;2612820;54;20559;-76
2023/10/11 04:38:50;;;;;;;12.97;11.93;;;;;;;;;;2612862;54;20419;-77
2023/10/11 04:41:18;;;;;;;14.57;13.30;;;;;;;;;;2612557;46;20546;-77
2023/10/11 04:44:04;;;;;;;14.73;12.30;;;;;;;;;;2613410;54;20403;-77
2023/10/11 04:46:31;;;;;;;16.40;12.33;;;;;;;;;;2612737;54;20384;-76
2023/10/11 04:49:18;;;;;;;13.40;12.30;;;;;;;;;;2613639;54;20947;-76
2023/10/11 04:51:45;;;;;;;13.73;12.60;;;;;;;;;;2612478;54;20423;-77
2023/10/11 04:54:17;;;;;;;14.47;13.00;;;;;;;;;;2612402;54;20476;-77
2023/10/11 04:59:11;;;;;;;13.37;12.07;;;;;;;;;;2612998;54;20419;-77
2023/10/11 05:04:13;;;;;;;13.70;12.50;;;;;;;;;;2612831;54;20539;-77
2023/10/11 05:06:42;;;;;;;13.77;12.30;;;;;;;;;;2613943;31;20923;-78
2023/10/11 05:09:21;;;;;;;18.27;12.00;;;;;;;;;;2613496;47;20451;-74
2023/10/11 05:11:58;;;;;;;14.60;12.80;;;;;;;;;;2618010;54;20540;-74
2023/10/11 05:17:39;;;;;;;13.70;12.60;;;;;;;;;;2616576;54;20388;-73
2023/10/11 05:23:05;;;;;;;14.17;12.57;;;;;;;;;;2616639;54;20416;-74
2023/10/11 05:25:58;;;;;;;14.60;13.20;;;;;;;;;;2616643;54;20370;-73
2023/10/11 05:29:23;;;;;;;14.30;13.03;;;;;;;;;;2616698;46;20392;-74
2023/10/11 05:51:40;;;;;;;13.53;12.57;;;;;;;;;;2615693;54;21020;-74
2023/10/11 05:54:08;;;;;;;13.50;12.10;;;;;;;;;;2613428;54;20461;-74
2023/10/11 05:56:38;;;;;;;14.53;13.33;;;;;;;;;;2614791;54;20994;-73
2023/10/11 05:59:09;;;;;;;15.20;13.70;;;;;;;;;;2614802;54;21337;-74
2023/10/11 06:01:37;;;;;;;14.57;13.37;;;;;;;;;;2615037;47;20427;-75
2023/10/11 06:04:05;;;;;;;14.00;12.93;;;;;;;;;;2614572;47;20450;-75
2023/10/11 06:06:38;;;;;;;14.00;12.80;;;;;;;;;;2614968;39;20810;-74
2023/10/11 06:09:06;;;;;;;14.47;13.27;;;;;;;;;;2616558;39;20813;-74
2023/10/11 06:11:38;;;;;;;13.03;12.13;;;;;;;;;;2613872;54;20527;-74
2023/10/11 06:14:17;;;;;;;15.10;13.70;;;;;;;;;;2615403;47;20497;-73
2023/10/11 06:16:49;;;;;;;25.03;12.30;;;;;;;;;;2615818;47;20427;-73
2023/10/11 06:19:17;;;;;;;13.90;12.90;;;;;;;;;;2615833;54;20422;-74
2023/10/11 06:21:56;;;;;;;14.57;13.37;;;;;;;;;;2613459;39;20789;-73
2023/10/11 06:24:23;;;;;;;13.47;12.50;;;;;;;;;;2612966;39;20815;-74
2023/10/11 06:26:53;;;;;;;13.47;12.23;;;;;;;;;;2613312;54;20404;-73
2023/10/11 06:29:24;;;;;;;13.70;12.40;;;;;;;;;;2613450;54;20408;-74
2023/10/11 06:31:50;;;;;;;12.43;11.43;;;;;;;;;;2613177;54;21005;-76
2023/10/11 06:34:32;;;;;;;11.73;10.77;;;;;;;;;;2613157;54;20419;-74
2023/10/11 06:37:00;;;;;;;13.00;11.87;;;;;;;;;;2609475;54;20419;-74
2023/10/11 06:42:18;;;;;;;17.77;12.77;;;;;;;;;;2609914;47;20419;-74
2023/10/11 06:44:47;;;;;;;14.27;12.77;;;;;;;;;;2611354;54;20424;-73
2023/10/11 06:47:14;;;;;;;15.70;14.00;;;;;;;;;;2611843;47;21010;-73
2023/10/11 06:49:47;;;;;;;14.07;11.73;;;;;;;;;;2611863;47;21363;-74
2023/10/11 06:52:17;;;;;;;13.30;12.30;;;;;;;;;;2611336;51;20553;-75
2023/10/11 06:54:47;;;;;;;13.33;12.33;;;;;;;;;;2610119;54;20958;-74
2023/10/11 06:57:19;;;;;;;15.57;13.10;;;;;;;;;;2609725;54;20492;-75
2023/10/11 06:59:56;;;;;;;15.60;12.77;;;;;;;;;;2608802;54;20395;-75
2023/10/11 07:02:32;;;;;;;14.50;12.83;;;;;;;;;;2608805;47;20419;-74
2023/10/11 07:05:05;;;;;;;17.80;14.17;;;;;;;;;;2609596;39;20817;-74
2023/10/11 07:07:32;;;;;;;14.43;13.33;;;;;;;;;;2607270;54;20459;-74
2023/10/11 07:10:13;;;;;;;14.20;13.00;;;;;;;;;;2610790;54;20511;-74
2023/10/11 07:12:39;;;;;;;14.67;13.37;;;;;;;;;;2613823;54;20446;-74
2023/10/11 07:15:09;;;;;;;16.27;13.00;;;;;;;;;;2614240;54;20416;-74
2023/10/11 07:17:36;;;;;;;15.10;13.73;;;;;;;;;;2614224;54;20495;-75
2023/10/11 07:20:19;;;;;;;14.77;13.77;;;;;;;;;;2614509;49;20423;-75
2023/10/11 07:22:45;;;;;;;15.27;13.93;;;;;;;;;;2615891;54;20422;-74
2023/10/11 07:27:56;;;;;;;15.20;14.13;;;;;;;;;;2615509;54;20467;-74
2023/10/11 07:30:24;;;;;;;14.03;12.93;;;;;;;;;;2611553;47;20435;-76
2023/10/11 07:32:50;;;;;;;16.47;15.07;;;;;;;;;;2610366;54;20434;-76
2023/10/11 07:35:27;;;;;;;14.50;13.60;;;;;;;;;;2610871;54;20403;-76
2023/10/11 07:37:56;;;;;;;14.23;13.13;;;;;;;;;;2611032;54;20472;-76
2023/10/11 07:40:33;;;;;;;15.53;14.30;;;;;;;;;;2610400;48;20410;-76
2023/10/11 07:43:00;;;;;;;16.50;14.83;;;;;;;;;;2610796;54;20384;-76
2023/10/11 07:45:27;;;;;;;14.13;13.33;;;;;;;;;;2611382;39;20804;-76
2023/10/11 07:47:55;;;;;;;15.67;14.67;;;;;;;;;;2610839;54;20964;-76
2023/10/11 07:50:24;;;;;;;16.60;15.10;;;;;;;;;;2611217;54;20424;-76
2023/10/11 07:52:51;;;;;;;16.50;15.07;;;;;;;;;;2610364;47;20432;-76
2023/10/11 07:55:17;;;;;;;15.70;14.30;;;;;;;;;;2611377;39;21112;-76
2023/10/11 07:57:46;;;;;;;16.23;15.23;;;;;;;;;;2611500;54;20400;-76
2023/10/11 08:00:16;;;;;;;17.00;15.43;;;;;;;;;;2611443;54;20981;-76
2023/10/11 08:02:43;;;;;;;14.17;13.00;;;;;;;;;;2610949;39;20950;-76
2023/10/11 08:05:14;;;;;;;13.77;12.80;;;;;;;;;;2611717;54;20466;-76
2023/10/11 08:07:40;;;;;;;14.00;13.20;;;;;;;;;;2611355;54;20430;-76
2023/10/11 08:10:29;;;;;;;15.10;14.10;;;;;;;;;;2611231;47;20451;-76
2023/10/11 08:12:57;;;;;;;15.23;14.23;;;;;;;;;;2611070;54;20408;-76
2023/10/11 08:15:25;;;;;;;14.57;13.43;;;;;;;;;;2611543;54;20399;-76
2023/10/11 08:17:51;;;;;;;14.90;13.80;;;;;;;;;;2611524;54;20415;-75
2023/10/11 08:20:17;;;;;;;15.30;14.00;;;;;;;;;;2612477;54;20972;-76
2023/10/11 08:22:47;;;;;;;14.13;13.17;;;;;;;;;;2611116;54;20428;-77
2023/10/11 08:25:13;;;;;;;15.03;14.03;;;;;;;;;;2611424;54;20387;-77
2023/10/11 08:27:41;;;;;;;14.37;13.27;;;;;;;;;;2611358;54;20404;-76
2023/10/11 08:32:43;;;;;;;15.80;14.60;;;;;;;;;;2611585;54;20407;-77
2023/10/11 08:35:17;;;;;;;16.47;15.00;;;;;;;;;;2611206;54;20563;-76
2023/10/11 08:37:53;;;;;;;15.13;13.80;;;;;;;;;;2611994;54;20544;-76
2023/10/11 08:40:29;;;;;;;14.77;13.77;;;;;;;;;;2611271;54;20427;-72
2023/10/11 08:42:59;;;;;;;15.57;14.17;;;;;;;;;;2610892;54;20456;-75
2023/10/11 08:45:48;;;;;;;15.00;14.00;;;;;;;;;;2611647;54;20392;-74
2023/10/11 08:48:15;;;;;;;16.60;15.07;;;;;;;;;;2611341;54;20411;-76
2023/10/11 08:50:51;;;;;;;14.80;13.70;;;;;;;;;;2612403;54;20547;-74
2023/10/11 08:53:22;;;;;;;15.20;14.10;;;;;;;;;;2611990;39;20494;-76
2023/10/11 08:55:56;;;;;;;14.90;13.90;;;;;;;;;;2612439;54;20451;-75
2023/10/11 08:58:28;;;;;;;14.47;13.50;;;;;;;;;;2612382;54;20403;-74
2023/10/11 09:00:55;;;;;;;14.10;13.20;;;;;;;;;;2611970;54;20422;-75
2023/10/11 09:03:36;;;;;;;14.93;13.83;;;;;;;;;;2611582;54;20412;-73
2023/10/11 09:06:02;;;;;;;16.67;15.13;;;;;;;;;;2611693;39;20550;-73
2023/10/11 09:08:35;;;;;;;18.93;16.17;;;;;;;;;;2611875;54;20408;-73
2023/10/11 09:11:28;;;;;;;16.83;15.53;;;;;;;;;;2612904;46;20462;-73
2023/10/11 09:14:10;;;;;;;17.03;15.70;;;;;;;;;;2611795;39;20456;-74
2023/10/11 09:16:36;;;;;;;16.73;15.27;;;;;;;;;;2610466;54;20427;-75
2023/10/11 09:19:09;;;;;;;15.77;14.77;;;;;;;;;;2611140;54;20408;-73
2023/10/11 09:21:36;;;;;;;14.97;13.87;;;;;;;;;;2611834;54;20491;-74
2023/10/11 09:24:03;;;;;;;15.57;14.40;;;;;;;;;;2610899;54;20427;-73
2023/10/11 09:26:33;;;;;;;15.30;14.10;;;;;;;;;;2611586;54;20414;-74
2023/10/11 09:29:07;;;;;;;15.13;14.00;;;;;;;;;;2611387;54;20578;-74
2023/10/11 09:31:57;;;;;;;15.97;14.50;;;;;;;;;;2614042;39;20820;-75
2023/10/11 09:34:28;;;;;;;14.30;13.40;;;;;;;;;;2614903;54;20431;-75
2023/10/11 09:37:00;;;;;;;15.03;13.93;;;;;;;;;;2614966;47;20514;-75
2023/10/11 09:39:29;;;;;;;15.30;13.90;;;;;;;;;;2615427;54;20427;-75
2023/10/11 09:42:02;;;;;;;16.10;14.90;;;;;;;;;;2615093;47;20454;-75
2023/10/11 09:44:34;;;;;;;15.77;14.13;;;;;;;;;;2615205;54;21016;-75
2023/10/11 09:47:02;;;;;;;16.40;15.20;;;;;;;;;;2615548;54;20404;-75
2023/10/11 09:49:30;;;;;;;16.43;15.33;;;;;;;;;;2615257;54;20438;-75
2023/10/11 09:51:59;;;;;;;14.77;13.67;;;;;;;;;;2610085;47;20420;-75
2023/10/11 09:54:27;;;;;;;15.60;14.60;;;;;;;;;;2610112;54;20518;-76
2023/10/11 09:57:08;;;;;;;15.67;14.57;;;;;;;;;;2611680;54;21025;-76
2023/10/11 09:59:52;;;;;;;16.87;15.30;;;;;;;;;;2611389;31;20874;-77
2023/10/11 10:02:19;;;;;;;15.37;14.20;;;;;;;;;;2611866;47;20422;-77
2023/10/11 10:04:51;;;;;;;15.83;14.57;;;;;;;;;;2612150;39;21254;-76
2023/10/11 10:07:28;;;;;;;15.70;14.63;;;;;;;;;;2610850;47;20391;-75
2023/10/11 10:10:01;;;;;;;16.33;14.90;;;;;;;;;;2610894;47;20514;-75
2023/10/11 10:12:32;;;;;;;17.23;15.63;;;;;;;;;;2609658;47;20511;-76
2023/10/11 10:15:03;;;;;;;15.97;14.83;;;;;;;;;;2608738;54;20452;-76
2023/10/11 10:17:29;;;;;;;16.17;14.73;;;;;;;;;;2612106;54;20479;-75
2023/10/11 10:20:00;;;;;;;14.87;13.90;;;;;;;;;;2612047;54;20403;-76
2023/10/11 10:22:32;;;;;;;16.97;15.37;;;;;;;;;;2612115;54;20427;-77
2023/10/11 10:25:17;;;;;;;15.67;14.47;;;;;;;;;;2611755;54;21045;-76
2023/10/11 10:27:45;;;;;;;16.20;14.90;;;;;;;;;;2610958;54;21060;-77
2023/10/11 10:30:16;;;;;;;16.17;14.60;;;;;;;;;;2611963;54;20419;-76
2023/10/11 10:33:22;;;;;;;16.13;14.67;;;;;;;;;;2612304;54;20407;-76
2023/10/11 10:35:48;;;;;;;16.20;14.50;;;;;;;;;;2610977;54;20566;-75
2023/10/11 10:38:15;;;;;;;16.73;15.40;;;;;;;;;;2612105;54;20460;-77
2023/10/11 10:40:45;;;;;;;16.47;14.83;;;;;;;;;;2611556;46;20430;-77
2023/10/11 10:43:22;;;;;;;15.90;14.47;;;;;;;;;;2611407;54;20392;-76
2023/10/11 10:45:49;;;;;;;14.87;13.70;;;;;;;;;;2611278;54;20396;-76
2023/10/11 10:48:16;;;;;;;15.93;12.90;;;;;;;;;;2611704;54;20404;-76
2023/10/11 10:50:49;;;;;;;15.07;14.00;;;;;;;;;;2609445;54;20432;-76
2023/10/11 10:53:16;;;;;;;16.30;14.80;;;;;;;;;;2610781;47;20424;-76
2023/10/11 10:55:42;;;;;;;15.90;14.47;;;;;;;;;;2608279;54;20594;-76
2023/10/11 10:58:15;;;;;;;17.27;15.20;;;;;;;;;;2608443;54;20570;-76
2023/10/11 11:00:43;;;;;;;15.97;14.67;;;;;;;;;;2609442;54;20994;-76
2023/10/11 11:03:23;;;;;;;16.60;15.10;;;;;;;;;;2614098;39;20811;-75
2023/10/11 11:05:56;;;;;;;16.40;14.77;;;;;;;;;;2614393;47;20404;-76
2023/10/11 11:08:31;;;;;;;16.00;14.37;;;;;;;;;;2614482;39;20807;-75
2023/10/11 11:11:25;;;;;;;14.83;13.50;;;;;;;;;;2614109;39;21218;-74
2023/10/11 11:13:54;;;;;;;15.83;13.87;;;;;;;;;;2611796;54;20965;-74
2023/10/11 11:16:29;;;;;;;17.50;14.30;;;;;;;;;;2611023;39;20796;-75
2023/10/11 11:19:01;;;;;;;14.87;13.30;;;;;;;;;;2610102;54;20418;-76
2023/10/11 11:21:29;;;;;;;16.00;14.43;;;;;;;;;;2611220;54;20458;-75
2023/10/11 11:23:56;;;;;;;16.03;14.40;;;;;;;;;;2611654;54;20461;-74
2023/10/11 11:26:23;;;;;;;16.10;14.30;;;;;;;;;;2610976;54;20974;-73
2023/10/11 11:29:23;;;;;;;18.13;15.10;;;;;;;;;;2610373;47;20428;-78
2023/10/11 11:31:52;;;;;;;16.43;15.13;;;;;;;;;;2610971;54;20439;-73
2023/10/11 11:34:28;;;;;;;17.30;15.57;;;;;;;;;;2610089;47;20446;-76
2023/10/11 11:37:01;;;;;;;18.90;17.33;;;;;;;;;;2610249;54;20432;-75
2023/10/11 11:39:27;;;;;;;25.60;15.87;;;;;;;;;;2611160;54;20934;-75
2023/10/11 11:41:58;;;;;;;17.60;15.57;;;;;;;;;;2611092;54;20428;-76
2023/10/11 11:44:27;;;;;;;17.37;15.77;;;;;;;;;;2611376;54;20430;-74
2023/10/11 11:46:54;;;;;;;17.87;15.60;;;;;;;;;;2611485;54;20420;-74
2023/10/11 11:49:24;;;;;;;15.80;14.50;;;;;;;;;;2610825;47;20436;-74
2023/10/11 11:51:55;;;;;;;16.00;15.00;;;;;;;;;;2610393;54;20415;-75
2023/10/11 11:54:23;;;;;;;16.90;14.77;;;;;;;;;;2610776;54;20454;-74
2023/10/11 11:56:54;;;;;;;17.87;16.40;;;;;;;;;;2610059;54;20454;-73
2023/10/11 11:59:21;;;;;;;14.53;13.73;;;;;;;;;;2611080;54;20431;-73
2023/10/11 12:01:49;;;;;;;23.17;15.53;;;;;;;;;;2610348;47;20435;-75
2023/10/11 12:04:20;;;;;;;15.63;14.30;;;;;;;;;;2611720;39;20833;-75
2023/10/11 12:06:49;;;;;;;18.13;16.63;;;;;;;;;;2611129;54;20422;-73
2023/10/11 12:09:21;;;;;;;18.03;15.80;;;;;;;;;;2610742;47;20412;-75
2023/10/11 12:11:53;;;;;;;17.67;15.87;;;;;;;;;;2612052;47;20415;-76
2023/10/11 12:14:22;;;;;;;17.80;16.10;;;;;;;;;;2610342;47;20407;-76
2023/10/11 12:16:49;;;;;;;16.97;15.40;;;;;;;;;;2611018;47;20435;-72
2023/10/11 12:19:15;;;;;;;17.43;15.60;;;;;;;;;;2611706;54;20428;-74
2023/10/11 12:21:41;;;;;;;16.93;15.40;;;;;;;;;;2609556;39;20850;-75
2023/10/11 12:24:11;;;;;;;16.40;15.37;;;;;;;;;;2610370;54;20575;-75
2023/10/11 12:26:43;;;;;;;16.70;15.30;;;;;;;;;;2611004;54;20974;-75
2023/10/11 12:29:12;;;;;;;17.83;16.30;;;;;;;;;;2610760;54;20383;-75
2023/10/11 12:31:43;;;;;;;16.63;14.80;;;;;;;;;;2609877;39;20915;-76
2023/10/11 12:34:10;;;;;;;17.33;15.53;;;;;;;;;;2610086;54;20396;-75
2023/10/11 12:36:42;;;;;;;25.20;17.00;;;;;;;;;;2609711;54;20466;-74
2023/10/11 12:39:08;;;;;;;15.73;14.40;;;;;;;;;;2610516;54;20479;-75
2023/10/11 12:41:39;;;;;;;15.70;14.27;;;;;;;;;;2611403;54;20428;-77
2023/10/11 12:44:07;;;;;;;15.37;14.20;;;;;;;;;;2612392;54;20399;-76
2023/10/11 12:46:34;;;;;;;14.33;13.03;;;;;;;;;;2612297;54;20412;-74
2023/10/11 12:49:00;;;;;;;16.40;14.90;;;;;;;;;;2612478;54;20424;-73
2023/10/11 12:51:27;;;;;;;15.63;13.80;;;;;;;;;;2611898;54;20432;-73
2023/10/11 12:53:57;;;;;;;14.97;13.57;;;;;;;;;;2611116;47;20424;-73
2023/10/11 12:56:26;;;;;;;15.97;14.50;;;;;;;;;;2611826;54;21420;-74
2023/10/11 12:58:54;;;;;;;16.80;15.30;;;;;;;;;;2611090;54;20431;-73
2023/10/11 13:01:36;;;;;;;16.30;14.47;;;;;;;;;;2610993;47;20423;-74
2023/10/11 13:04:17;;;;;;;18.93;15.27;;;;;;;;;;2611697;54;20387;-74
2023/10/11 13:06:49;;;;;;;16.40;15.10;;;;;;;;;;2611596;54;20544;-74
2023/10/11 13:09:17;;;;;;;14.10;13.10;;;;;;;;;;2612234;54;20395;-73
2023/10/11 13:11:46;;;;;;;16.77;15.07;;;;;;;;;;2611039;54;20458;-74
2023/10/11 13:14:18;;;;;;;16.43;14.67;;;;;;;;;;2615329;46;20408;-76
2023/10/11 13:16:45;;;;;;;16.40;14.80;;;;;;;;;;2616041;50;20427;-76
2023/10/11 13:19:18;;;;;;;16.67;14.90;;;;;;;;;;2615649;47;20455;-75
2023/10/11 13:21:50;;;;;;;16.73;15.50;;;;;;;;;;2615910;54;20403;-75
2023/10/11 13:24:23;;;;;;;16.07;14.53;;;;;;;;;;2616660;54;20602;-75
2023/10/11 13:26:55;;;;;;;17.27;15.70;;;;;;;;;;2616676;54;20424;-75
2023/10/11 13:29:31;;;;;;;20.80;14.20;;;;;;;;;;2616853;54;20438;-74
2023/10/11 13:31:58;;;;;;;16.87;15.33;;;;;;;;;;2616371;54;21000;-74
2023/10/11 13:34:28;;;;;;;15.73;14.50;;;;;;;;;;2615990;54;20922;-76
2023/10/11 13:36:57;;;;;;;17.13;15.43;;;;;;;;;;2616499;39;21330;-75
2023/10/11 13:39:27;;;;;;;18.83;14.73;;;;;;;;;;2614856;47;20434;-76
2023/10/11 13:42:26;;;;;;;17.60;14.60;;;;;;;;;;2615437;47;20446;-75
2023/10/11 13:44:54;;;;;;;15.53;14.10;;;;;;;;;;2614386;54;20400;-75
2023/10/11 13:47:36;;;;;;;15.37;14.07;;;;;;;;;;2614429;47;20435;-75
2023/10/11 13:50:08;;;;;;;18.80;15.10;;;;;;;;;;2614273;54;20978;-75
2023/10/11 13:52:39;;;;;;;19.73;15.60;;;;;;;;;;2614336;39;20889;-77
2023/10/11 13:55:11;;;;;;;15.50;13.97;;;;;;;;;;2608478;47;20467;-76
2023/10/11 13:57:41;;;;;;;16.30;14.90;;;;;;;;;;2609387;49;20412;-76
2023/10/11 14:05:43;;;;;;;17.43;14.87;;;;;;;;;;2608339;54;20408;-76
2023/10/11 14:08:24;;;;;;;16.40;14.70;;;;;;;;;;2609203;47;20431;-76
2023/10/11 14:10:54;;;;;;;15.80;14.13;;;;;;;;;;2609775;54;20436;-76
2023/10/11 14:13:27;;;;;;;20.53;14.77;;;;;;;;;;2609410;54;20434;-77
2023/10/11 14:15:57;;;;;;;16.57;15.00;;;;;;;;;;2609686;54;21488;-77
2023/10/11 14:18:27;;;;;;;15.60;14.20;;;;;;;;;;2609591;54;20454;-77
2023/10/11 14:20:56;;;;;;;14.60;13.47;;;;;;;;;;2610126;54;20411;-77
2023/10/11 14:23:27;;;;;;;17.00;15.10;;;;;;;;;;2609422;47;20423;-76
2023/10/11 14:25:53;;;;;;;20.30;14.90;;;;;;;;;;2609358;47;20446;-77
2023/10/11 14:28:19;;;;;;;15.30;14.00;;;;;;;;;;2609960;54;20446;-75
2023/10/11 14:30:49;;;;;;;16.27;14.57;;;;;;;;;;2608872;47;20522;-75
2023/10/11 14:33:18;;;;;;;16.63;15.23;;;;;;;;;;2608275;47;20965;-75
2023/10/11 14:35:44;;;;;;;16.37;15.27;;;;;;;;;;2608366;54;20996;-75
2023/10/11 14:38:14;;;;;;;16.00;14.47;;;;;;;;;;2608655;47;20432;-76
2023/10/11 14:40:42;;;;;;;15.40;13.87;;;;;;;;;;2610968;54;20426;-76
2023/10/11 14:43:11;;;;;;;14.87;13.83;;;;;;;;;;2610293;46;20440;-76
2023/10/11 14:45:37;;;;;;;15.70;14.13;;;;;;;;;;2610865;54;20455;-75
2023/10/11 14:48:08;;;;;;;15.97;14.33;;;;;;;;;;2610502;47;20514;-76
2023/10/11 14:50:38;;;;;;;15.07;13.50;;;;;;;;;;2610431;54;20411;-76
2023/10/11 14:53:04;;;;;;;13.20;12.00;;;;;;;;;;2609108;47;20440;-76
2023/10/11 14:55:32;;;;;;;15.40;12.80;;;;;;;;;;2608612;47;20462;-76
2023/10/11 14:57:58;;;;;;;14.50;13.10;;;;;;;;;;2609198;54;20419;-78
2023/10/11 15:00:25;;;;;;;14.67;11.80;;;;;;;;;;2608692;50;21037;-75
2023/10/11 15:02:52;;;;;;;14.70;13.40;;;;;;;;;;2611295;54;20526;-75
2023/10/11 15:05:18;;;;;;;15.80;14.53;;;;;;;;;;2610298;54;20450;-74
2023/10/11 15:07:51;;;;;;;15.90;14.40;;;;;;;;;;2610626;54;20433;-76
2023/10/11 15:10:23;;;;;;;16.80;15.27;;;;;;;;;;2614213;54;20527;-75
2023/10/11 15:12:56;;;;;;;16.80;15.00;;;;;;;;;;2614469;54;20419;-74
2023/10/11 15:15:32;;;;;;;14.87;13.77;;;;;;;;;;2615817;54;20454;-77
2023/10/11 15:18:01;;;;;;;15.20;13.70;;;;;;;;;;2616379;39;20880;-76
2023/10/11 15:20:31;;;;;;;15.47;14.30;;;;;;;;;;2615655;39;20793;-75
2023/10/11 15:23:02;;;;;;;17.07;14.50;;;;;;;;;;2615200;54;20977;-77
2023/10/11 15:25:35;;;;;;;18.27;15.00;;;;;;;;;;2616296;54;20427;-76
2023/10/11 15:28:05;;;;;;;15.10;13.77;;;;;;;;;;2615588;47;20425;-74
2023/10/11 15:30:40;;;;;;;15.13;14.03;;;;;;;;;;2615487;51;20420;-74